createdAt,value
2022-08-27T11:06:55.118Z,24.90
2022-08-27T11:09:57.042Z,26.00
2022-08-27T11:12:51.368Z,26.10
2022-08-27T11:15:44.272Z,26.10
2022-08-27T11:18:42.656Z,26.30
2022-08-27T11:21:48.887Z,27.00
2022-08-27T11:24:47.929Z,26.80
2022-08-27T11:27:49.441Z,26.60
2022-08-27T11:30:51.595Z,26.70
2022-08-27T11:33:47.518Z,26.70
2022-08-27T11:37:09.413Z,26.70
2022-08-27T11:40:19.664Z,26.60
2022-08-27T11:43:25.204Z,26.70
2022-08-27T11:46:25.127Z,26.70
2022-08-27T11:49:27.273Z,26.50
2022-08-27T11:52:37.424Z,28.20
2022-08-27T11:56:03.970Z,29.10
2022-08-27T11:59:05.501Z,26.00
2022-08-27T12:02:10.582Z,25.90
2022-08-27T12:08:39.300Z,25.80
2022-08-27T12:12:24.745Z,25.60
2022-08-27T12:15:31.045Z,25.40
2022-08-27T12:22:23.874Z,24.90
2022-08-27T12:25:38.269Z,24.90
2022-08-27T12:28:32.244Z,24.90
2022-08-27T12:32:02.092Z,25.20
2022-08-27T12:42:04.817Z,24.80
2022-08-27T12:44:59.889Z,24.80
2022-08-27T12:47:51.245Z,24.80
2022-08-27T12:50:42.735Z,24.80
2022-08-27T12:53:47.093Z,24.70
2022-08-27T12:57:01.234Z,24.70
2022-08-27T13:00:15.152Z,24.60
2022-08-27T13:03:34.163Z,24.60
2022-08-27T13:06:30.680Z,24.40
2022-08-27T13:09:30.395Z,24.30
2022-08-27T13:12:22.130Z,24.30
2022-08-27T13:15:16.703Z,24.50
2022-08-27T13:18:08.833Z,24.30
2022-08-27T13:21:06.300Z,24.20
2022-08-27T13:23:59.594Z,25.40
2022-08-27T13:26:57.651Z,24.00
2022-08-27T13:29:47.877Z,23.80
2022-08-27T13:32:42.427Z,23.80
2022-08-27T13:35:33.842Z,23.80
2022-08-27T13:38:25.997Z,25.30
2022-08-27T13:41:24.840Z,23.70
2022-08-27T13:44:23.259Z,23.80
2022-08-27T13:47:20.503Z,23.70
2022-08-27T13:50:18.572Z,23.80
2022-08-27T13:53:25.845Z,23.90
2022-08-27T13:56:28.087Z,24.40
2022-08-27T13:59:27.999Z,23.80
2022-08-27T14:02:30.929Z,23.90
2022-08-27T14:05:32.045Z,23.80
2022-08-27T14:08:23.522Z,24.10
2022-08-27T14:11:19.716Z,24.30
2022-08-27T14:14:11.075Z,24.30
2022-08-27T14:17:21.333Z,24.20
2022-08-27T14:20:19.527Z,24.10
2022-08-27T14:23:10.569Z,24.00
2022-08-27T14:26:03.348Z,23.80
2022-08-27T14:28:54.743Z,24.30
2022-08-27T14:31:48.075Z,23.60
2022-08-27T14:34:46.345Z,23.60
2022-08-27T14:37:37.352Z,24.00
2022-08-27T14:40:27.951Z,21.90
2022-08-27T14:43:18.510Z,23.40
2022-08-27T14:46:15.427Z,23.40
2022-08-27T14:49:14.354Z,23.40
2022-08-27T14:52:09.495Z,25.00
2022-08-27T14:55:05.904Z,23.50
2022-08-27T14:57:59.732Z,23.50
2022-08-27T15:00:52.449Z,23.40
2022-08-27T15:03:47.883Z,23.20
2022-08-27T15:06:38.961Z,23.10
2022-08-27T15:09:30.487Z,23.20
2022-08-27T15:12:25.992Z,23.20
2022-08-27T15:15:19.108Z,23.30
2022-08-27T15:18:10.177Z,23.30
2022-08-27T15:21:01.772Z,23.20
2022-08-27T15:23:56.590Z,23.10
2022-08-27T15:26:48.089Z,23.20
2022-08-27T15:29:46.703Z,22.50
2022-08-27T15:32:39.839Z,21.20
2022-08-27T15:35:30.854Z,22.90
2022-08-27T15:38:21.026Z,23.20
2022-08-27T15:41:12.656Z,23.40
2022-08-27T15:44:03.147Z,23.40
2022-08-27T15:46:56.525Z,23.40
2022-08-27T15:49:47.230Z,23.20
2022-08-27T15:52:41.201Z,23.10
2022-08-27T15:55:34.954Z,22.80
2022-08-27T15:58:29.159Z,22.90
2022-08-27T16:01:26.096Z,22.80
2022-08-27T16:04:20.690Z,25.30
2022-08-27T16:07:11.337Z,22.50
2022-08-27T16:10:02.187Z,22.70
2022-08-27T16:12:52.803Z,24.80
2022-08-27T16:15:45.291Z,24.10
2022-08-27T16:18:39.794Z,22.60
2022-08-27T16:21:38.172Z,22.60
2022-08-27T16:24:29.586Z,22.60
2022-08-27T16:27:21.017Z,22.70
2022-08-27T16:30:13.036Z,22.60
2022-08-27T16:33:03.589Z,22.50
2022-08-27T16:35:56.237Z,22.60
2022-08-27T16:38:49.897Z,22.50
2022-08-27T16:41:45.037Z,22.60
2022-08-27T16:44:36.375Z,22.60
2022-08-27T16:47:26.971Z,23.10
2022-08-27T16:50:29.841Z,22.80
2022-08-27T16:53:23.095Z,22.90
2022-08-27T16:56:17.081Z,23.00
2022-08-27T16:59:14.193Z,22.90
2022-08-27T17:02:04.792Z,22.90
2022-08-27T17:05:12.242Z,21.40
2022-08-27T17:08:11.630Z,23.00
2022-08-27T17:11:04.387Z,23.00
2022-08-27T17:13:59.895Z,23.10
2022-08-27T17:16:50.650Z,23.00
2022-08-27T17:19:41.396Z,23.00
2022-08-27T17:22:32.033Z,23.00
2022-08-27T17:25:23.108Z,24.80
2022-08-27T17:28:21.306Z,22.90
2022-08-27T17:31:27.804Z,22.80
2022-08-27T17:34:21.920Z,25.20
2022-08-27T17:37:12.535Z,22.80
2022-08-27T17:40:03.003Z,22.80
2022-08-27T17:43:07.272Z,22.70
2022-08-27T17:46:01.841Z,22.60
2022-08-27T17:48:56.469Z,22.50
2022-08-27T17:51:48.491Z,22.40
2022-08-27T17:54:42.498Z,22.30
2022-08-27T17:57:41.131Z,22.10
2022-08-27T18:00:32.821Z,22.20
2022-08-27T18:03:24.645Z,22.10
2022-08-27T18:06:23.088Z,23.70
2022-08-27T18:09:16.197Z,22.00
2022-08-27T18:12:17.066Z,21.90
2022-08-27T18:15:11.228Z,21.90
2022-08-27T18:18:05.494Z,19.80
2022-08-27T18:20:56.642Z,21.80
2022-08-27T18:23:50.072Z,21.70
2022-08-27T18:26:40.479Z,22.00
2022-08-27T18:29:33.966Z,22.30
2022-08-27T18:32:24.758Z,21.60
2022-08-27T18:35:19.404Z,21.40
2022-08-27T18:38:09.980Z,23.80
2022-08-27T18:41:03.516Z,21.50
2022-08-27T18:43:54.008Z,21.50
2022-08-27T18:46:44.331Z,21.30
2022-08-27T18:49:35.111Z,22.80
2022-08-27T18:52:26.255Z,22.00
2022-08-27T18:55:25.154Z,21.10
2022-08-27T18:58:19.648Z,20.10
2022-08-27T19:04:19.452Z,21.10
2022-08-27T19:07:09.981Z,21.10
2022-08-27T19:10:11.428Z,22.00
2022-08-27T19:13:03.970Z,21.10
2022-08-27T19:16:04.888Z,21.10
2022-08-27T19:18:56.356Z,21.00
2022-08-27T19:21:52.799Z,21.20
2022-08-27T19:27:37.353Z,21.10
2022-08-27T19:30:28.727Z,21.10
2022-08-27T19:36:34.774Z,23.50
2022-08-27T19:39:25.905Z,20.80
2022-08-27T19:42:23.531Z,20.80
2022-08-27T19:48:09.056Z,20.90
2022-08-27T19:51:03.778Z,20.20
2022-08-27T19:53:56.815Z,20.80
2022-08-27T19:56:51.299Z,20.50
2022-08-27T20:05:21.349Z,20.10
2022-08-27T20:08:22.606Z,21.10
2022-08-27T20:11:18.734Z,20.80
2022-08-27T20:14:12.932Z,20.40
2022-08-27T20:17:08.480Z,19.60
2022-08-27T20:20:00.703Z,20.50
2022-08-27T20:22:51.542Z,20.40
2022-08-27T20:25:47.881Z,19.60
2022-08-27T20:28:40.543Z,19.80
2022-08-27T20:31:32.299Z,17.50
2022-08-27T20:34:31.542Z,19.60
2022-08-27T20:37:32.045Z,19.00
2022-08-27T20:40:29.737Z,19.50
2022-08-27T20:43:25.692Z,19.10
2022-08-27T20:46:21.166Z,19.40
2022-08-27T20:49:13.136Z,19.30
2022-08-27T20:52:11.754Z,19.20
2022-08-27T20:55:02.569Z,18.90
2022-08-27T20:58:07.018Z,18.60
2022-08-27T21:01:02.802Z,18.60
2022-08-27T21:04:03.000Z,18.40
2022-08-27T21:06:53.864Z,18.50
2022-08-27T21:09:56.895Z,18.40
2022-08-27T21:12:50.163Z,18.40
2022-08-27T21:15:44.054Z,18.40
2022-08-27T21:18:37.596Z,18.00
2022-08-27T21:21:29.187Z,19.80
2022-08-27T21:24:20.667Z,20.10
2022-08-27T21:27:12.196Z,18.40
2022-08-27T21:30:03.699Z,19.00
2022-08-27T21:32:57.238Z,18.40
2022-08-27T21:35:50.764Z,18.30
2022-08-27T21:38:41.020Z,18.30
2022-08-27T21:41:35.467Z,18.20
2022-08-27T21:44:27.963Z,18.30
2022-08-27T21:47:22.850Z,18.70
2022-08-27T21:50:15.066Z,18.30
2022-08-27T21:53:13.054Z,18.30
2022-08-27T21:56:04.681Z,18.20
2022-08-27T21:58:55.570Z,18.90
2022-08-27T22:04:48.502Z,18.20
2022-08-27T22:07:39.252Z,16.10
2022-08-27T22:10:34.463Z,17.90
2022-08-27T22:13:31.833Z,17.90
2022-08-27T22:16:22.591Z,18.40
2022-08-27T22:19:13.418Z,17.90
2022-08-27T22:27:50.798Z,17.80
2022-08-27T22:30:44.030Z,17.70
2022-08-27T22:36:26.757Z,17.90
2022-08-27T22:39:17.906Z,16.10
2022-08-27T22:42:09.911Z,17.80
2022-08-27T22:45:12.787Z,18.10
2022-08-27T22:48:24.407Z,17.70
2022-08-27T22:51:17.641Z,17.60
2022-08-27T22:54:09.308Z,17.10
2022-08-27T22:56:59.597Z,18.70
2022-08-27T22:59:50.302Z,20.00
2022-08-27T23:02:44.579Z,17.40
2022-08-27T23:05:40.559Z,14.80
2022-08-27T23:08:33.125Z,19.60
2022-08-27T23:11:25.550Z,17.60
2022-08-27T23:17:36.052Z,17.60
2022-08-27T23:20:32.594Z,17.70
2022-08-27T23:26:45.516Z,17.50
2022-08-27T23:29:37.028Z,17.90
2022-08-27T23:32:35.910Z,17.50
2022-08-27T23:41:19.228Z,17.70
2022-08-27T23:44:12.360Z,17.60
2022-08-27T23:47:03.110Z,18.60
2022-08-27T23:49:54.612Z,18.50
2022-08-27T23:52:47.934Z,18.70
2022-08-27T23:55:40.594Z,18.90
2022-08-27T23:58:30.806Z,19.60
